Terminal Aerodrome Forecast
Issued by NWS Cleveland, OH

Home | Current Version | Previous Version | Graphics & Text | Print | Product List | Glossary On
Versions: 1 2 3 4 5 6 7 8 9 10 11 12 13 14 15 16 17 18 19 20 21
000
FTUS41 KCLE 270900 AAA
TAFERI
TAF AMD
KERI 270900Z 2709/2806 03009KT P6SM BKN012 OVC025
      TEMPO 2711/2715 4SM -SN SCT009 OVC020
     FM271500 02010KT 4SM -SN BKN015 OVC025
     FM272200 35008KT P6SM BKN020
     FM280400 35005KT P6SM SCT020=

USA.gov is the U.S. government's official web portal to all federal, state and local government web resources and services.